createdAt,value
2018-12-29T00:00:50.770Z,42.17
2018-12-29T00:03:19.672Z,39.47
2018-12-29T00:05:48.642Z,40.27
2018-12-29T00:08:17.653Z,42.43
2018-12-29T00:10:46.550Z,42.47
2018-12-29T00:13:16.035Z,42.17
2018-12-29T00:15:45.129Z,43.93
2018-12-29T00:18:14.069Z,40.60
2018-12-29T00:20:44.623Z,42.27
2018-12-29T00:23:13.529Z,43.43
2018-12-29T00:25:42.486Z,43.37
2018-12-29T00:28:11.462Z,42.73
2018-12-29T00:30:42.384Z,42.77
2018-12-29T00:33:11.334Z,44.37
2018-12-29T00:35:40.517Z,40.00
2018-12-29T00:38:09.528Z,43.57
2018-12-29T00:40:39.418Z,41.20
2018-12-29T00:43:09.680Z,40.93
2018-12-29T00:45:41.570Z,42.97
2018-12-29T00:48:10.368Z,41.13
2018-12-29T00:50:39.236Z,41.43
2018-12-29T00:53:08.832Z,42.63
2018-12-29T00:55:38.312Z,43.10
2018-12-29T00:58:08.501Z,44.43
2018-12-29T01:00:39.056Z,41.77
2018-12-29T01:03:07.995Z,42.50
2018-12-29T01:05:38.943Z,41.57
2018-12-29T01:08:07.831Z,41.97
2018-12-29T01:10:37.680Z,41.40
2018-12-29T01:13:07.660Z,45.00
2018-12-29T01:15:38.907Z,40.53
2018-12-29T01:18:07.803Z,41.70
2018-12-29T01:20:38.019Z,44.17
2018-12-29T01:23:06.991Z,43.57
2018-12-29T01:25:35.769Z,40.87
2018-12-29T01:28:04.646Z,40.57
2018-12-29T01:30:36.035Z,41.60
2018-12-29T01:33:04.842Z,41.80
2018-12-29T01:35:33.697Z,44.67
2018-12-29T01:38:02.613Z,40.80
2018-12-29T01:40:31.398Z,40.97
2018-12-29T01:43:01.604Z,44.93
2018-12-29T01:45:30.521Z,40.10
2018-12-29T01:47:59.414Z,41.50
2018-12-29T01:50:28.183Z,42.90
2018-12-29T01:52:57.085Z,43.50
2018-12-29T01:55:25.857Z,42.17
2018-12-29T01:57:54.679Z,43.60
2018-12-29T02:00:23.586Z,45.37
2018-12-29T02:02:54.195Z,44.33
2018-12-29T02:05:24.055Z,44.40
2018-12-29T02:07:53.102Z,46.77
2018-12-29T02:10:22.524Z,46.63
2018-12-29T02:12:51.319Z,46.57
2018-12-29T02:15:24.706Z,44.90
2018-12-29T02:17:50.861Z,47.60
2018-12-29T02:20:20.536Z,43.47
2018-12-29T02:22:49.389Z,44.47
2018-12-29T02:25:19.939Z,44.57
2018-12-29T02:27:49.531Z,46.10
2018-12-29T02:30:22.002Z,45.43
2018-12-29T02:32:51.146Z,49.80
2018-12-29T02:35:20.193Z,46.67
2018-12-29T02:37:49.093Z,46.73
2018-12-29T02:40:17.926Z,46.83
2018-12-29T02:42:46.863Z,47.80
2018-12-29T02:45:15.792Z,47.77
2018-12-29T02:47:46.249Z,47.10
2018-12-29T02:50:15.187Z,50.57
2018-12-29T02:52:45.129Z,48.30
2018-12-29T02:55:13.974Z,48.87
2018-12-29T02:57:42.906Z,48.53
2018-12-29T03:00:11.871Z,47.20
2018-12-29T03:02:40.661Z,51.17
2018-12-29T03:05:09.725Z,51.60
2018-12-29T03:07:38.576Z,47.93
2018-12-29T03:10:07.688Z,49.07
2018-12-29T03:12:36.488Z,47.67
2018-12-29T03:15:07.133Z,46.77
2018-12-29T03:17:35.929Z,50.57
2018-12-29T03:20:04.831Z,48.87
2018-12-29T03:22:33.704Z,51.20
2018-12-29T03:25:02.556Z,50.83
2018-12-29T03:27:31.379Z,49.20
2018-12-29T03:30:00.248Z,49.13
2018-12-29T03:32:29.382Z,48.30
2018-12-29T03:34:58.296Z,51.77
2018-12-29T03:37:27.138Z,51.23
2018-12-29T03:39:56.011Z,50.00
2018-12-29T03:42:26.428Z,49.60
2018-12-29T03:44:56.715Z,50.90
2018-12-29T03:47:25.635Z,49.47
2018-12-29T03:49:54.533Z,51.60
2018-12-29T03:52:23.400Z,50.70
2018-12-29T03:54:52.295Z,50.13
2018-12-29T03:57:21.207Z,51.90
2018-12-29T03:59:50.000Z,51.47
2018-12-29T04:02:18.792Z,49.33
2018-12-29T04:04:47.781Z,50.30
2018-12-29T04:07:16.814Z,49.67
2018-12-29T04:09:45.676Z,49.80
2018-12-29T04:12:15.625Z,49.90
2018-12-29T04:14:44.854Z,51.77
2018-12-29T04:17:13.647Z,52.70
2018-12-29T04:19:43.954Z,47.57
2018-12-29T04:22:15.402Z,52.40
2018-12-29T04:24:44.353Z,49.87
2018-12-29T04:27:13.297Z,48.03
2018-12-29T04:29:42.167Z,51.50
2018-12-29T04:32:11.423Z,49.47
2018-12-29T04:34:40.441Z,48.23
2018-12-29T04:37:09.350Z,52.00
2018-12-29T04:39:39.661Z,52.47
2018-12-29T04:42:08.687Z,46.30
2018-12-29T04:44:37.542Z,48.10
2018-12-29T04:47:06.416Z,46.40
2018-12-29T04:49:35.319Z,47.47
2018-12-29T04:52:04.291Z,48.80
2018-12-29T04:54:33.221Z,45.17
2018-12-29T04:57:02.138Z,46.30
2018-12-29T04:59:32.154Z,47.40
2018-12-29T05:02:02.142Z,46.70
2018-12-29T05:04:30.971Z,46.40
2018-12-29T05:07:00.695Z,49.60
2018-12-29T05:09:29.616Z,48.53
2018-12-29T05:11:58.487Z,46.43
2018-12-29T05:14:27.343Z,45.47
2018-12-29T05:16:56.340Z,48.90
2018-12-29T05:19:25.201Z,45.70
2018-12-29T05:21:54.075Z,43.77
2018-12-29T05:24:22.964Z,45.80
2018-12-29T05:26:51.773Z,45.13
2018-12-29T05:29:20.691Z,44.20
2018-12-29T05:31:49.887Z,43.27
2018-12-29T05:34:18.787Z,43.67
2018-12-29T05:36:47.641Z,43.43
2018-12-29T05:39:16.479Z,44.33
2018-12-29T05:41:45.374Z,43.60
2018-12-29T05:44:14.414Z,41.07
2018-12-29T05:46:43.464Z,41.37
2018-12-29T05:49:13.921Z,42.57
2018-12-29T05:51:43.184Z,39.90
2018-12-29T05:54:12.150Z,42.70
2018-12-29T05:56:41.038Z,43.27
2018-12-29T05:59:10.012Z,42.60
2018-12-29T06:01:38.905Z,45.93
2018-12-29T06:04:07.821Z,47.47
2018-12-29T06:06:36.744Z,48.60
2018-12-29T06:09:06.863Z,50.33
2018-12-29T06:11:35.852Z,47.97
2018-12-29T06:14:05.539Z,48.80
2018-12-29T06:16:34.510Z,48.53
2018-12-29T06:19:03.504Z,47.20
2018-12-29T06:21:32.311Z,45.77
2018-12-29T06:24:01.247Z,45.30
2018-12-29T06:26:30.844Z,43.47
2018-12-29T06:28:59.749Z,41.77
2018-12-29T06:31:28.894Z,43.57
2018-12-29T06:33:57.811Z,44.47
2018-12-29T06:36:26.668Z,40.30
2018-12-29T06:38:55.948Z,44.00
2018-12-29T06:41:24.856Z,45.23
2018-12-29T06:43:54.272Z,42.83
2018-12-29T06:46:23.229Z,40.70
2018-12-29T06:48:52.147Z,41.77
2018-12-29T06:51:21.294Z,40.60
2018-12-29T06:53:50.686Z,43.27
2018-12-29T06:56:19.616Z,39.73
2018-12-29T06:58:48.529Z,41.40
2018-12-29T07:01:17.564Z,41.03
2018-12-29T07:03:46.783Z,40.40
2018-12-29T07:06:15.821Z,41.13
2018-12-29T07:08:44.732Z,40.27
2018-12-29T07:11:16.554Z,39.70
2018-12-29T07:13:45.427Z,39.47
2018-12-29T07:16:14.299Z,41.70
2018-12-29T07:18:43.122Z,39.60
2018-12-29T07:21:11.996Z,39.77
2018-12-29T07:23:40.941Z,41.67
2018-12-29T07:26:12.736Z,38.77
2018-12-29T07:28:41.473Z,39.77
2018-12-29T07:31:12.270Z,38.33
2018-12-29T07:33:41.160Z,40.57
2018-12-29T07:36:10.136Z,40.50
2018-12-29T07:38:39.295Z,39.87
2018-12-29T07:41:08.123Z,38.10
2018-12-29T07:43:37.063Z,37.30
2018-12-29T07:46:05.897Z,40.67
2018-12-29T07:48:36.061Z,37.50
2018-12-29T07:51:04.932Z,37.60
2018-12-29T07:53:33.812Z,39.90
2018-12-29T07:56:02.724Z,41.83
2018-12-29T07:58:33.563Z,40.87
2018-12-29T08:01:02.489Z,39.10
2018-12-29T08:03:32.310Z,37.80
2018-12-29T08:06:01.929Z,37.70
2018-12-29T08:08:30.868Z,38.07
2018-12-29T08:10:59.874Z,39.57
2018-12-29T08:13:28.753Z,35.93
2018-12-29T08:15:57.531Z,36.87
2018-12-29T08:18:26.483Z,38.30
2018-12-29T08:20:55.465Z,37.20
2018-12-29T08:23:24.395Z,36.47
2018-12-29T08:25:54.009Z,37.50
2018-12-29T08:28:24.848Z,37.73
2018-12-29T08:30:54.123Z,37.83
2018-12-29T08:33:22.946Z,37.30
2018-12-29T08:35:51.915Z,36.47
2018-12-29T08:38:20.725Z,36.10
2018-12-29T08:40:49.502Z,38.93
2018-12-29T08:43:19.776Z,38.47
2018-12-29T08:45:48.788Z,37.70
2018-12-29T08:48:19.436Z,35.63
2018-12-29T08:50:49.829Z,37.30
2018-12-29T08:53:19.428Z,33.87
2018-12-29T08:55:48.276Z,35.10
2018-12-29T08:58:17.633Z,35.83
2018-12-29T09:00:46.529Z,33.03
2018-12-29T09:03:15.477Z,35.90
2018-12-29T09:05:44.530Z,33.07
2018-12-29T09:08:13.706Z,35.67
2018-12-29T09:10:42.587Z,34.27
2018-12-29T09:13:12.139Z,37.77
2018-12-29T09:15:41.072Z,34.50
2018-12-29T09:18:14.054Z,38.23
2018-12-29T09:20:42.847Z,35.57
2018-12-29T09:23:11.751Z,38.27
2018-12-29T09:25:40.744Z,35.00
2018-12-29T09:28:09.699Z,37.80
2018-12-29T09:30:39.022Z,36.30
2018-12-29T09:33:10.626Z,36.47
2018-12-29T09:35:40.828Z,38.63
2018-12-29T09:38:11.567Z,39.70
2018-12-29T09:40:40.507Z,39.80
2018-12-29T09:43:09.531Z,36.13
2018-12-29T09:45:38.301Z,38.83
2018-12-29T09:48:07.387Z,36.20
2018-12-29T09:50:37.585Z,35.77
2018-12-29T09:53:06.375Z,36.80
2018-12-29T09:55:35.184Z,38.50
2018-12-29T09:58:04.841Z,37.67
2018-12-29T10:00:33.953Z,35.37
2018-12-29T10:03:02.984Z,35.87
2018-12-29T10:05:32.660Z,36.40
2018-12-29T10:08:01.613Z,37.67
2018-12-29T10:10:31.829Z,34.57
2018-12-29T10:13:00.748Z,38.30
2018-12-29T10:15:29.633Z,36.97
2018-12-29T10:17:58.887Z,36.13
2018-12-29T10:20:27.803Z,36.53
2018-12-29T10:22:56.655Z,37.67
2018-12-29T10:25:25.563Z,34.80
2018-12-29T10:27:54.473Z,37.30
2018-12-29T10:30:23.625Z,35.93
2018-12-29T10:32:52.586Z,37.53
2018-12-29T10:35:21.434Z,35.83
2018-12-29T10:37:50.299Z,36.30
2018-12-29T10:40:19.148Z,36.43
2018-12-29T10:42:48.117Z,35.40
2018-12-29T10:45:16.989Z,32.00
2018-12-29T10:47:45.860Z,35.77
2018-12-29T10:50:14.831Z,36.93
2018-12-29T10:52:43.640Z,35.13
2018-12-29T10:55:13.313Z,36.90
2018-12-29T10:57:42.095Z,36.10
2018-12-29T11:00:12.499Z,34.67
2018-12-29T11:02:41.649Z,33.70
2018-12-29T11:05:10.570Z,35.77
2018-12-29T11:07:40.783Z,34.83
2018-12-29T11:10:09.604Z,33.40
2018-12-29T11:12:38.628Z,31.33
2018-12-29T11:15:08.257Z,32.47
2018-12-29T11:17:42.168Z,31.93
2018-12-29T11:20:08.551Z,33.80
2018-12-29T11:22:37.671Z,29.80
2018-12-29T11:25:07.375Z,31.50
2018-12-29T11:27:36.668Z,32.00
2018-12-29T11:30:06.652Z,30.30
2018-12-29T11:32:35.647Z,29.87
2018-12-29T11:35:04.941Z,29.90
2018-12-29T11:37:33.852Z,29.03
2018-12-29T11:40:02.788Z,31.57
2018-12-29T11:42:33.189Z,30.47
2018-12-29T11:45:02.104Z,31.07
2018-12-29T11:47:31.042Z,30.13
2018-12-29T11:50:00.857Z,27.87
2018-12-29T11:52:30.848Z,30.80
2018-12-29T11:54:59.653Z,30.03
2018-12-29T11:57:28.580Z,30.83
2018-12-29T11:59:57.488Z,28.47
2018-12-29T12:02:26.386Z,27.53
2018-12-29T12:04:55.181Z,28.70
2018-12-29T12:07:26.833Z,29.57
2018-12-29T12:09:55.735Z,30.33
2018-12-29T12:12:24.603Z,29.17
2018-12-29T12:14:54.748Z,30.50
2018-12-29T12:17:23.578Z,30.43
2018-12-29T12:19:52.582Z,32.23
2018-12-29T12:22:21.573Z,30.73
2018-12-29T12:24:51.251Z,29.30
2018-12-29T12:27:20.371Z,28.60
2018-12-29T12:29:50.964Z,30.20
2018-12-29T12:32:19.825Z,32.00
2018-12-29T12:34:49.819Z,32.87
2018-12-29T12:37:19.978Z,33.20
2018-12-29T12:39:48.965Z,32.17
2018-12-29T12:42:17.862Z,32.23
2018-12-29T12:44:48.604Z,33.60
2018-12-29T12:47:17.566Z,31.33
2018-12-29T12:49:46.555Z,29.80
2018-12-29T12:52:16.243Z,30.30
2018-12-29T12:54:45.228Z,30.50
2018-12-29T12:57:14.573Z,30.67
2018-12-29T12:59:44.025Z,30.93
2018-12-29T13:02:12.970Z,30.40
2018-12-29T13:04:42.350Z,31.20
2018-12-29T13:07:11.275Z,31.23
2018-12-29T13:09:40.203Z,30.80
2018-12-29T13:12:10.694Z,28.07
2018-12-29T13:14:39.609Z,28.50
2018-12-29T13:17:08.587Z,30.03
2018-12-29T13:19:38.144Z,28.47
2018-12-29T13:22:06.977Z,26.93
2018-12-29T13:24:37.292Z,28.87
2018-12-29T13:27:06.322Z,27.33
2018-12-29T13:29:35.237Z,27.07
2018-12-29T13:32:05.204Z,28.30
2018-12-29T13:34:34.697Z,29.30
2018-12-29T13:37:04.633Z,25.03
2018-12-29T13:39:34.929Z,24.33
2018-12-29T13:42:03.859Z,26.97
2018-12-29T13:44:32.915Z,24.97
2018-12-29T13:47:01.847Z,26.20
2018-12-29T13:49:30.821Z,26.40
2018-12-29T13:51:59.915Z,25.90
2018-12-29T13:54:31.513Z,24.40
2018-12-29T13:57:00.534Z,26.63
2018-12-29T13:59:29.607Z,22.90
2018-12-29T14:01:58.573Z,24.07
2018-12-29T14:04:28.206Z,24.80
2018-12-29T14:06:57.085Z,23.10
2018-12-29T14:09:25.957Z,24.77
2018-12-29T14:11:55.218Z,23.80
2018-12-29T14:14:24.476Z,22.10
2018-12-29T14:16:53.470Z,22.43
2018-12-29T14:19:23.231Z,21.10
2018-12-29T14:21:52.250Z,23.20
2018-12-29T14:24:21.121Z,21.67
2018-12-29T14:26:51.519Z,23.33
2018-12-29T14:29:21.163Z,22.20
2018-12-29T14:31:50.197Z,23.13
2018-12-29T14:34:19.218Z,21.83
2018-12-29T14:36:48.242Z,22.80
2018-12-29T14:39:17.149Z,23.27
2018-12-29T14:41:47.444Z,22.17
2018-12-29T14:44:16.766Z,22.13
2018-12-29T14:46:45.606Z,21.60
2018-12-29T14:49:15.149Z,22.70
2018-12-29T14:51:44.043Z,22.47
2018-12-29T14:54:12.994Z,21.00
2018-12-29T14:56:42.344Z,23.67
2018-12-29T14:59:11.338Z,20.00
2018-12-29T15:01:40.916Z,22.87
2018-12-29T15:04:10.037Z,21.20
2018-12-29T15:06:39.012Z,22.27
2018-12-29T15:09:07.839Z,20.20
2018-12-29T15:11:37.585Z,22.53
2018-12-29T15:14:07.872Z,19.10
2018-12-29T15:16:38.590Z,19.90
2018-12-29T15:19:07.509Z,21.37
2018-12-29T15:21:38.473Z,20.57
2018-12-29T15:24:08.942Z,19.63
2018-12-29T15:26:38.682Z,20.20
2018-12-29T15:29:10.517Z,18.97
2018-12-29T15:31:39.674Z,18.30
2018-12-29T15:34:08.670Z,20.67
2018-12-29T15:36:38.063Z,21.00
2018-12-29T15:39:08.310Z,20.03
2018-12-29T15:41:37.129Z,20.50
2018-12-29T15:44:06.587Z,20.87
2018-12-29T15:46:35.563Z,21.70
2018-12-29T15:49:04.446Z,21.30
2018-12-29T15:51:37.105Z,19.70
2018-12-29T15:54:06.646Z,20.20
2018-12-29T15:56:36.184Z,18.83
2018-12-29T15:59:05.232Z,18.73
2018-12-29T16:01:34.244Z,19.53
2018-12-29T16:04:03.289Z,20.50
2018-12-29T16:06:32.532Z,15.67
2018-12-29T16:09:01.349Z,18.53
2018-12-29T16:11:31.794Z,17.27
2018-12-29T16:14:00.866Z,19.20
2018-12-29T16:16:29.818Z,18.33
2018-12-29T16:19:00.271Z,18.50
2018-12-29T16:21:29.647Z,17.90
2018-12-29T16:23:58.551Z,17.20
2018-12-29T16:26:27.523Z,16.33
2018-12-29T16:28:56.677Z,17.97
2018-12-29T16:31:26.197Z,16.30
2018-12-29T16:33:56.567Z,15.50
2018-12-29T16:36:27.169Z,17.10
2018-12-29T16:38:56.093Z,17.93
2018-12-29T16:41:26.555Z,15.60
2018-12-29T16:43:56.119Z,14.53
2018-12-29T16:46:29.230Z,17.53
2018-12-29T16:48:55.953Z,42.07
2018-12-29T16:51:26.222Z,14.90
2018-12-29T16:53:57.169Z,15.17
2018-12-29T16:56:26.922Z,14.47
2018-12-29T16:58:56.516Z,14.00
2018-12-29T17:01:25.382Z,16.00
2018-12-29T17:03:54.995Z,16.60
2018-12-29T17:06:24.026Z,16.10
2018-12-29T17:08:54.651Z,15.10
2018-12-29T17:11:24.851Z,17.03
2018-12-29T17:13:53.928Z,15.47
2018-12-29T17:16:24.585Z,15.87
2018-12-29T17:18:53.541Z,17.30
2018-12-29T17:21:22.491Z,17.23
2018-12-29T17:23:51.854Z,17.70
2018-12-29T17:26:20.680Z,18.90
2018-12-29T17:28:49.778Z,19.37
2018-12-29T17:31:21.362Z,18.73
2018-12-29T17:33:51.354Z,20.63
2018-12-29T17:36:20.405Z,19.30
2018-12-29T17:38:50.747Z,18.60
2018-12-29T17:41:19.684Z,21.07
2018-12-29T17:43:51.083Z,20.97
2018-12-29T17:46:20.737Z,20.87
2018-12-29T17:48:49.680Z,21.63
2018-12-29T17:51:18.631Z,25.90
2018-12-29T17:53:48.194Z,24.07
2018-12-29T17:56:18.794Z,22.03
2018-12-29T17:58:49.797Z,24.77
2018-12-29T18:01:18.745Z,23.83
2018-12-29T18:03:47.837Z,24.73
2018-12-29T18:06:16.778Z,24.73
2018-12-29T18:08:47.272Z,25.43
2018-12-29T18:11:16.299Z,26.50
2018-12-29T18:13:45.747Z,26.10
2018-12-29T18:16:15.112Z,25.80
2018-12-29T18:18:44.667Z,29.70
2018-12-29T18:21:15.907Z,29.67
2018-12-29T18:23:45.360Z,27.53
2018-12-29T18:26:14.255Z,28.93
2018-12-29T18:28:44.567Z,27.70
2018-12-29T18:31:14.039Z,29.60
2018-12-29T18:33:46.048Z,32.90
2018-12-29T18:36:16.207Z,35.60
2018-12-29T18:38:46.019Z,35.70
2018-12-29T18:41:17.273Z,34.90
2018-12-29T18:43:46.228Z,36.47
2018-12-29T18:46:16.641Z,36.63
2018-12-29T18:48:46.201Z,37.50
2018-12-29T18:51:15.373Z,36.50
2018-12-29T18:53:44.766Z,37.30
2018-12-29T18:56:13.825Z,38.03
2018-12-29T18:58:44.209Z,39.53
2018-12-29T19:01:14.357Z,42.60
2018-12-29T19:03:45.027Z,40.07
2018-12-29T19:06:14.017Z,41.90
2018-12-29T19:08:43.477Z,40.73
2018-12-29T19:11:13.122Z,42.50
2018-12-29T19:13:42.358Z,46.03
2018-12-29T19:16:12.097Z,45.30
2018-12-29T19:18:41.579Z,43.63
2018-12-29T19:21:11.694Z,45.87
2018-12-29T19:23:42.437Z,43.70
2018-12-29T19:26:11.700Z,44.30
2018-12-29T19:28:45.852Z,40.90
2018-12-29T19:31:20.894Z,46.30
2018-12-29T19:33:49.876Z,40.23
2018-12-29T19:36:19.059Z,45.40
2018-12-29T19:38:48.786Z,43.93
2018-12-29T19:41:18.329Z,43.00
2018-12-29T19:43:49.001Z,46.73
2018-12-29T19:46:18.344Z,44.23
2018-12-29T19:48:47.325Z,44.00
2018-12-29T19:51:16.306Z,43.13
2018-12-29T19:53:45.743Z,43.83
2018-12-29T19:56:14.761Z,41.57
2018-12-29T19:58:45.150Z,40.87
2018-12-29T20:01:14.092Z,37.30
2018-12-29T20:03:43.263Z,38.33
2018-12-29T20:06:12.374Z,38.27
2018-12-29T20:08:41.557Z,33.60
2018-12-29T20:11:10.555Z,35.43
2018-12-29T20:13:41.246Z,30.73
2018-12-29T20:16:10.974Z,33.63
2018-12-29T20:18:40.198Z,31.43
2018-12-29T20:21:09.351Z,31.67
2018-12-29T20:23:38.315Z,24.50
2018-12-29T20:26:08.679Z,24.27
2018-12-29T20:28:38.012Z,24.00
2018-12-29T20:31:08.670Z,23.73
2018-12-29T20:33:38.309Z,20.53
2018-12-29T20:36:07.305Z,18.60
2018-12-29T20:38:37.326Z,20.67
2018-12-29T20:41:06.070Z,20.27
2018-12-29T20:43:35.308Z,12.93
2018-12-29T20:46:04.223Z,8.47
2018-12-29T20:48:33.118Z,6.13
2018-12-29T20:51:01.972Z,5.90
2018-12-29T20:53:30.946Z,4.83
2018-12-29T20:55:59.933Z,4.30
2018-12-29T20:58:29.065Z,4.93
2018-12-29T21:00:58.431Z,3.27
2018-12-29T21:03:27.427Z,2.77
2018-12-29T21:05:56.434Z,2.87
2018-12-29T21:08:25.959Z,2.00
2018-12-29T21:10:55.151Z,1.90
2018-12-29T21:13:24.051Z,3.20
2018-12-29T21:15:52.970Z,3.13
2018-12-29T21:18:22.526Z,2.90
2018-12-29T21:20:51.487Z,4.03
2018-12-29T21:23:20.835Z,3.60
2018-12-29T21:25:51.216Z,3.33
2018-12-29T21:28:20.053Z,2.70
2018-12-29T21:30:49.374Z,3.27
2018-12-29T21:33:18.264Z,2.77
2018-12-29T21:35:47.206Z,3.23
2018-12-29T21:38:16.146Z,2.77
2018-12-29T21:40:44.999Z,2.53
2018-12-29T21:43:16.362Z,3.37
2018-12-29T21:45:45.512Z,3.03
2018-12-29T21:48:14.500Z,2.30
2018-12-29T21:50:43.378Z,3.87
2018-12-29T21:53:12.301Z,3.43
2018-12-29T21:55:43.218Z,3.70
2018-12-29T21:58:12.065Z,3.27
2018-12-29T22:00:40.972Z,3.27
2018-12-29T22:03:10.263Z,2.80
2018-12-29T22:05:39.135Z,2.43
2018-12-29T22:08:09.457Z,4.60
2018-12-29T22:10:38.428Z,2.13
2018-12-29T22:13:07.318Z,2.23
2018-12-29T22:15:36.663Z,2.30
2018-12-29T22:18:05.521Z,1.80
2018-12-29T22:20:34.484Z,2.10
2018-12-29T22:23:03.326Z,3.33
2018-12-29T22:25:32.190Z,3.50
2018-12-29T22:28:01.128Z,2.80
2018-12-29T22:30:30.535Z,2.60
2018-12-29T22:32:59.869Z,2.87
2018-12-29T22:35:28.903Z,2.73
2018-12-29T22:37:57.875Z,2.70
2018-12-29T22:40:26.763Z,2.33
2018-12-29T22:42:57.875Z,3.10
2018-12-29T22:45:26.816Z,2.57
2018-12-29T22:47:55.717Z,2.97
2018-12-29T22:50:24.606Z,2.90
2018-12-29T22:52:53.570Z,3.10
2018-12-29T22:55:23.339Z,3.50
2018-12-29T22:57:52.269Z,4.23
2018-12-29T23:00:23.008Z,3.00
2018-12-29T23:02:51.950Z,2.67
2018-12-29T23:05:21.370Z,3.80
2018-12-29T23:07:52.465Z,2.40
2018-12-29T23:10:21.488Z,3.10
2018-12-29T23:12:50.849Z,2.80
2018-12-29T23:15:19.770Z,3.50
2018-12-29T23:17:48.811Z,3.60
2018-12-29T23:20:17.681Z,3.17
2018-12-29T23:22:46.577Z,3.20
2018-12-29T23:25:17.532Z,2.13
2018-12-29T23:27:46.488Z,2.90
2018-12-29T23:30:18.857Z,2.37
2018-12-29T23:32:49.339Z,3.33
2018-12-29T23:35:18.459Z,3.00
2018-12-29T23:37:47.607Z,3.87
2018-12-29T23:40:16.526Z,5.07
2018-12-29T23:42:46.522Z,3.97
2018-12-29T23:45:15.691Z,5.37
2018-12-29T23:47:44.685Z,6.40
2018-12-29T23:50:14.557Z,4.60
2018-12-29T23:52:44.599Z,3.37
2018-12-29T23:55:15.021Z,4.40
2018-12-29T23:57:45.527Z,4.03
